TFM - Tactical Decision Aid
ID: Runway Winds: CIG/VIS Threshold:

KEWR - Newark Intl, NJ, US

Updated at: 2035 UTC 17 Jun 2019
Latest TAF at: 1930 UTC 17 Jun 2019

TAF Board

Time1951Z 17/21Z 17/22Z 17/23Z 18/00Z 18/01Z 18/02Z 18/03Z 18/04Z 18/05Z 18/06Z 18/07Z 18/08Z 18/09Z>>
Type OBS PRVL PRVL
  [TEMP]  
PRVL
  [TEMP]  
PRVL
  [TEMP]  
PRVL
  [TEMP]  
PRVL PRVL PRVL PRVL
  [PRB30]  
PRVL
  [PRB30]  
PRVL
  [PRB30]  
PRVL
  [TEMP]  
PRVL
  [TEMP]  
VIS 10 >6 >6
  [5]  
>6
  [5]  
>6
  [5]  
>6
  [5]  
5 5 5 5
  [5]  
5
  [5]  
5
  [5]  
3
  [2]  
3
  [2]  
CIG 30 35 40
  [30]  
40
  [30]  
40
  [30]  
40
  [30]  
25 25 25 25
  [10]  
25
  [10]  
25
  [10]  
10
  [4]  
10
  [4]  
Cover OVC BKN BKN
  [BKN]  
BKN
  [BKN]  
BKN
  [BKN]  
BKN
  [BKN]  
BKN BKN BKN BKN
  [BKN]  
BKN
  [BKN]  
BKN
  [BKN]  
BKN
  [BKN]  
BKN
  [BKN]  
FltCat MVFR VFR VFR
  [MVFR]  
VFR
  [MVFR]  
VFR
  [MVFR]  
VFR
  [MVFR]  
MVFR MVFR MVFR MVFR
  [MVFR]  
MVFR
  [MVFR]  
MVFR
  [MVFR]  
MVFR
  [LIFR]  
MVFR
  [LIFR]  
WX -RA -SHRA VCTS
  [-SHRA]  
VCTS
  [-SHRA]  
VCTS
  [-SHRA]  
VCTS
  [-SHRA]  
BR BR BR BR
  [-SHRA BR]  
BR
  [-SHRA BR]  
BR
  [-SHRA BR]  
BR
  [BR]  
BR
  [BR]  
WDir 320 160 150
[150]
150
[150]
150
[150]
150
[150]
140 140 140 140
[140]
140
[140]
140
[140]
VRB
[VRB]
VRB
[VRB]
WSpd 5 6 5
  [5]  
5
  [5]  
5
  [5]  
5
  [5]  
4 4 4 4
  [4]  
4
  [4]  
4
  [4]  
3
  [3]  
3
  [3]  
WGst -- -- --
  [--]  
--
  [--]  
--
  [--]  
--
  [--]  
-- -- -- --
  [--]  
--
  [--]  
--
  [--]  
--
  [--]  
--
  [--]  

TDA Impact Legend

  None Marginal Slight Moderate High
Visibility (sm) >5 3≤X≤5 1≤X<3 0.5≤X<1 <0.5
Ceiling (100 ft) >30 10≤X≤30 4≤X<10 2≤X<4 <2
Wind Speed (kt) <15 15≤X<25 25≤X<30 ≥30
Wind Gust (kt) <15 15≤X<25 25≤X<35 ≥35
Weather No Wx Reported VCTS -TS,-FZRA TS,FZRA +TS,+FZRA
TAF
KEWR 171930Z 1720/1824 16006KT P6SM -SHRA FEW015 BKN035
  FM172200 15005KT P6SM VCTS SCT025 BKN040CB
  TEMPO 1722/1802 5SM -SHRA BKN030
  FM180200 14004KT 5SM BR SCT015 BKN025
  PROB30 1805/1808 5SM -SHRA BR BKN010
  FM180800 VRB03KT 3SM BR BKN010
  TEMPO 1808/1812 2SM BR BKN004
  FM181400 VRB05KT 5SM -SHRA BR BKN010
  FM182100 10007KT P6SM BKN035


METAR
KEWR 171951Z 32005KT 10SM -RA SCT022 BKN030 OVC043 24/19 A3000 RMK AO2 SLP157 SCT V BKN P0001 T02390194 $
KEWR 171851Z 00000KT 10SM -RA SCT025 BKN031 OVC048 24/19 A2999 RMK AO2 RAB41 SLP156 P0000 T02440189 $
KEWR 171821Z 16003KT 10SM SCT024 BKN031 OVC045 24/18 A2999 RMK AO2 SCT V BKN T02440183 $
KEWR 171751Z 00000KT 10SM BKN024 BKN031 OVC042 24/18 A2999 RMK AO2 RAE1657B22E34 SLP153 CIG 022V027 P0000 60000 T02440183 10244 20217 50009 $

Radar Display
Forecast Discussion